Aspen-Pitkin Co,Sardy Field Aspen US
ICAO: KASE
IATA: ASE
Category: Medium
Scheduled Services: Yes

Elevation: 7820 ft
TransAlt. 18000 ft.

Airport Communications:
ATIS:120.4
CLNC DEL:123.75
APP/DEP:123.8
CTAF:118.85
GND:121.9
TWR:118.85
UNICOM:122.95

KASE Zoom In..

Runways:

(A) RW 15 length 8006 ft width 100 ft
LOC 111.15 / hdg 151

(B) RW 33 length 8006 ft width 100 ft
LOC 111.15 / hdg 331

Location; KASE
Day. 11 / Time. 11.53 Zulu
* Altimeter: 30.28
* Temperature: 11° c. 51.8°f.
* Wind from: 000° Speed 00 kn.
Dewpoint: -03° c.
Visibility: 10 Statute Miles.
Clouds: Clear (automated report).

KASE 111153Z AUTO 00000KT 10SM CLR 11/M03 A3028 RMK AO2 SLP116 T01111033 10150 20111 55002

Going to: --> -->


Wind - Calm.

 
 
jpsmedia worldairports.se 2020   terms of use